A- A+ FrançaisEnglishEspañol中国

Services sur Internet Soldes sur Internet Des idées de cadeaux Météo Météo aéro

La météo à : Autours de vous Tarbes-Lourdes-PyrénéesLille-Marcq-En-Baroeul Lille-Lesquin Paris-Charles-De-Gaulle

manche à air

La météo aéronautique pour les pilotes, la préparation du vol avec les METAR (METeorological Aerodrome Report, message d'observation des conditions météorologiques pour l'aviation) et Les TAF (Terminal Aerodrome Forecast : message de prévision à court terme des conditions météorologiques pour l'aviation). Et les autres ressources comme les VAC (Visual Approch Chart) et les NOTAM (Notice To Airman) pour préprer les vols.

Aéroport Kolding Vamdrup (Danemark) / OACI EKVD

L'altitude de l'aéroport Kolding Vamdrup est de 44 m = 144 ft. Il est situé à proximité de Kolding Vamdrup (Danemark). La météo générale à 5 jours est disponible pour Skodborg situé à 11.4 km.

METAR de l'aéroport Kolding Vamdrup - EKVD

EKVD 291050Z 21008KT 9999 VCSH BKN009 14/13 Q0997

Décodage du METAR de l'aéroport Kolding Vamdrup (DK)

METAR émis par EKVD le dimanche 29 septembre 2019 à 10:50 heure TU. Attention ce METAR est obsolète car il a été émis il y a 13 heure et 35 minutes.

La visibilité est de supérieure à 10 km = supérieure à 6.2 sm.

La température est de 14°C = 57 °F et le point rosée est de 13°C = 55 °F . Ce qui correspond à 94% d'humidité relative.

Le QNH est de 997 hPa = 29.44 inHg

Vent de 8 kt = 15 km/h, orienté à 210°.

Nuages : Couverture nuageuse fragmentée à 900 ft = 270 mètres.

VCSH

TAF de l'aéroport Kolding Vamdrup - EKVD

EKVD 290954Z 2909/2915 21008KT 9999 SCT030 BECMG 2909/2912 4000 RADZ BKN008 TEMPO 2912/2915 -RADZ BKN012

EKVD 290954Z 2909/2915 21008KT 9999 nuages épars à 030 devenant 2909/2912 4000 pluie DZ couverture nuageuse fragmentée à 008 temporairement 2912/2915 faible RADZ couverture nuageuse fragmentée à 012

Aéroport à proximité de Kolding Vamdrup

Météo générale à 5 jours à Skodborg (11.4 km)Aéroport Haderslev (19 km)Aéroport Skrydstrup Vojens MIL (24 km)Aéroport Billund (36 km)Aéroport Esbjerg (50 km)Aéroport Sonderborg (60 km)Aéroport Krusa Padborg (63 km)

Vue aérienne de l'aéroport Kolding Vamdrup

NOTAM de l'aéroport Kolding Vamdrup

Les NOTAM sont fournis sans aucune garantie de leur actualité. Le pilote est le seul responsable de la vérification de sa validité avant de l'utiliser opérationnellement pour préparer un vol ou l'utiliser lors de sa navigation.

Pas de NOTAM

Sources des données